Bayview Gardens, Illinois
Current Conditions -  °F | °C
As of 11:54 PM on Tuesday 25 Nov 2014 (Local Time) from KPIA Reporting Station
Clear Clear  
Wind Chill: 23°   Ceiling: Unl
Heat Index: 23°   Visibility: 8mi
Dew Point: 18°   Wind: 3mph
Humidity: 81%   Direction: 110°ESE
Pressure: 30.16"   Gusts: NA
Location:  40.7043°N, 89.529°W
Report Text: KPIA 260554Z 11003KT 8SM CLR M05/M08 A3016 RMK AO2 SLP224 T10501078 11033 21056 410061061 58005
Loading
Personal Weather Stations






























Interactive Weather Map New forecast layout! Learn more

10-Day Weather Forecast

Advertisements
Track Severe Weather on mobile